Boscobel, Wisconsin
Current Conditions -  °F | °C
As of 10:53 AM on Friday 24 Oct 2014 (Local Time) from KOVS Reporting Station
Haze Haze  
Wind Chill: 56°   Ceiling: 500
Heat Index: 56°   Visibility: 6mi
Dew Point: 53°   Wind: 6mph
Humidity: 90%   Direction: NA
Pressure: 30.02"   Gusts: NA
Location:  43.13°N, 90.71°W
Report Text: KOVS 241553Z AUTO VRB05KT 6SM BR OVC005 13/12 A3002 RMK AO2 SLP169 T01330117
Loading
Personal Weather Stations






























Interactive Weather Map
Tropical Storm Tracking
New forecast layout! Learn more

10-Day Weather Forecast

Advertisements
Track Severe Weather on mobile